Time;durP1;ratioP1;P1;durP2;ratioP2;P2;SDS_P1;SDS_P2;PMS_P1;PMS_P2;Temp;Humidity;BMP_temperature;BMP_pressure;BME280_temperature;BME280_humidity;BME280_pressure;Samples;Min_cycle;Max_cycle;Signal;HPM_P1;HPM_P2
2024/04/22 05:32:15;;;;;;;16.10;11.88;;;2.00;99.90;;;;;;5909293;22;20016;-93
2024/04/22 05:37:28;;;;;;;16.33;11.90;;;2.10;99.90;;;;;;5295197;27;20017;-94
2024/04/22 05:39:55;;;;;;;17.20;11.98;;;2.20;99.90;;;;;;5257344;27;20021;-93
2024/04/22 05:42:22;;;;;;;18.55;12.75;;;2.20;99.90;;;;;;5261323;27;20063;-95
2024/04/22 05:44:49;;;;;;;19.90;13.00;;;2.20;99.90;;;;;;5260111;27;20013;-92
2024/04/22 05:47:16;;;;;;;14.82;11.38;;;2.20;99.90;;;;;;5272511;27;20072;-95
2024/04/22 05:49:46;;;;;;;14.23;10.63;;;2.20;99.90;;;;;;5283578;27;20005;-93
2024/04/22 05:52:13;;;;;;;17.33;11.15;;;2.30;99.90;;;;;;5284820;27;20004;-93
2024/04/22 05:54:42;;;;;;;16.02;10.55;;;2.30;99.90;;;;;;5280618;27;20076;-92
2024/04/22 05:57:09;;;;;;;16.95;11.13;;;2.40;99.90;;;;;;5284367;27;20072;-94
2024/04/22 05:59:36;;;;;;;13.98;9.63;;;2.50;99.90;;;;;;5284089;27;20088;-95
2024/04/22 06:02:06;;;;;;;10.73;9.35;;;2.50;99.90;;;;;;5283002;27;19998;-92
2024/04/22 06:04:36;;;;;;;14.57;9.95;;;2.60;99.90;;;;;;5278454;27;20404;-91
2024/04/22 06:07:03;;;;;;;14.13;9.75;;;2.70;99.90;;;;;;5278951;27;19998;-94
2024/04/22 06:09:31;;;;;;;14.52;9.52;;;2.70;99.90;;;;;;5297746;26;20018;-92
2024/04/22 06:12:01;;;;;;;14.48;9.65;;;2.80;99.90;;;;;;5310671;27;20339;-89
2024/04/22 06:14:46;;;;;;;12.55;9.02;;;2.90;99.90;;;;;;5278363;27;20440;-91
2024/04/22 06:17:13;;;;;;;14.20;10.38;;;3.00;99.90;;;;;;5278185;27;20503;-91
2024/04/22 06:19:43;;;;;;;16.05;9.40;;;3.10;99.90;;;;;;5272021;27;20436;-91
2024/04/22 06:22:10;;;;;;;14.75;9.48;;;3.20;99.90;;;;;;5284043;27;20009;-92
2024/04/22 06:24:39;;;;;;;12.68;8.30;;;3.20;99.90;;;;;;5278314;27;20003;-92
2024/04/22 06:27:06;;;;;;;15.02;9.80;;;3.30;99.90;;;;;;5250276;27;20002;-91
2024/04/22 06:29:36;;;;;;;13.48;9.13;;;3.40;99.90;;;;;;5252976;27;20002;-92
2024/04/22 06:32:03;;;;;;;15.27;9.07;;;3.50;99.50;;;;;;5278161;27;19999;-91
2024/04/22 06:34:30;;;;;;;13.73;9.00;;;3.60;99.70;;;;;;5283746;27;20079;-92
2024/04/22 06:36:59;;;;;;;11.30;8.70;;;3.70;99.90;;;;;;5283831;27;20021;-91
2024/04/22 06:39:28;;;;;;;13.48;8.75;;;3.70;99.40;;;;;;5313678;27;20433;-91
2024/04/22 06:41:57;;;;;;;13.73;8.43;;;3.80;99.40;;;;;;5277929;27;20018;-92
2024/04/22 06:44:24;;;;;;;13.18;8.60;;;3.90;98.90;;;;;;5270873;27;20073;-91
2024/04/22 06:46:51;;;;;;;13.57;8.25;;;4.00;98.50;;;;;;5278095;27;20003;-91
2024/04/22 06:49:20;;;;;;;10.15;8.15;;;4.10;98.50;;;;;;5251247;27;20108;-92
2024/04/22 06:51:47;;;;;;;12.52;8.68;;;4.20;98.70;;;;;;5281962;27;20441;-92
2024/04/22 06:54:17;;;;;;;14.23;8.65;;;4.20;99.10;;;;;;5287338;27;19998;-92
2024/04/22 06:56:44;;;;;;;11.65;7.93;;;4.40;99.10;;;;;;5286970;27;20009;-92
2024/04/22 06:59:14;;;;;;;9.98;7.90;;;4.50;96.90;;;;;;5276897;27;20009;-92
2024/04/22 07:01:45;;;;;;;11.07;7.45;;;4.60;96.40;;;;;;5268720;27;20397;-92
2024/04/22 07:04:13;;;;;;;10.70;7.40;;;4.70;94.90;;;;;;5280894;27;20002;-91
2024/04/22 07:06:45;;;;;;;12.88;8.40;;;4.80;95.10;;;;;;5253246;27;19999;-92
2024/04/22 07:09:16;;;;;;;15.32;8.82;;;4.90;95.00;;;;;;5259998;27;20025;-91
2024/04/22 07:11:43;;;;;;;11.68;8.35;;;5.00;95.30;;;;;;5281016;27;19995;-92
2024/04/22 07:14:11;;;;;;;17.50;7.82;;;5.10;96.00;;;;;;5267371;27;20326;-91
2024/04/22 07:16:44;;;;;;;9.63;7.43;;;5.20;94.90;;;;;;5271216;27;20504;-91
2024/04/22 07:19:15;;;;;;;11.10;7.78;;;5.30;94.10;;;;;;5278764;27;20014;-91
2024/04/22 07:21:45;;;;;;;12.68;7.85;;;5.30;93.20;;;;;;5296816;27;20433;-91
2024/04/22 07:24:12;;;;;;;10.40;8.18;;;5.50;92.80;;;;;;5280876;27;20010;-92
2024/04/22 07:26:39;;;;;;;11.85;8.18;;;5.50;93.70;;;;;;5296503;27;20003;-92
2024/04/22 07:29:06;;;;;;;10.77;7.82;;;5.70;93.90;;;;;;5280698;27;20072;-91
2024/04/22 07:31:38;;;;;;;9.70;7.15;;;5.80;93.80;;;;;;5280513;27;20077;-92
2024/04/22 07:34:06;;;;;;;9.55;7.18;;;5.90;93.10;;;;;;5286563;27;20014;-92
2024/04/22 07:36:35;;;;;;;9.80;6.75;;;6.00;92.30;;;;;;5280496;27;20002;-91
2024/04/22 07:39:10;;;;;;;11.40;7.75;;;6.10;92.30;;;;;;5280318;27;20073;-91
2024/04/22 07:41:40;;;;;;;11.70;7.35;;;6.30;92.70;;;;;;5252646;27;20047;-92
2024/04/22 07:44:12;;;;;;;9.48;6.93;;;6.30;87.60;;;;;;5252611;27;20051;-91
2024/04/22 07:46:41;;;;;;;10.05;6.53;;;6.40;85.80;;;;;;5252685;27;20010;-92
2024/04/22 07:49:10;;;;;;;10.65;7.65;;;6.50;84.80;;;;;;5252493;27;20013;-92
2024/04/22 07:51:42;;;;;;;10.75;6.50;;;6.60;89.30;;;;;;5258501;27;20014;-92
2024/04/22 07:54:09;;;;;;;8.40;6.20;;;6.70;88.50;;;;;;5280441;27;20002;-92
2024/04/22 07:56:39;;;;;;;9.68;6.50;;;6.80;84.70;;;;;;5259306;27;20047;-92
2024/04/22 07:59:09;;;;;;;9.73;6.28;;;6.90;80.10;;;;;;5297670;27;20045;-92
2024/04/22 08:01:37;;;;;;;8.90;6.13;;;7.00;79.70;;;;;;5280147;27;20010;-92
2024/04/22 08:04:05;;;;;;;10.85;6.40;;;7.10;79.30;;;;;;5279831;27;20321;-92
2024/04/22 08:06:37;;;;;;;10.40;6.53;;;7.20;78.00;;;;;;5280288;27;19995;-92
2024/04/22 08:09:04;;;;;;;7.80;6.03;;;7.30;78.10;;;;;;5280064;27;19998;-92
2024/04/22 08:11:35;;;;;;;9.32;5.95;;;7.50;80.00;;;;;;5255083;27;20038;-92
2024/04/22 08:14:02;;;;;;;8.30;5.60;;;7.70;78.90;;;;;;5291050;27;20513;-92
2024/04/22 08:16:29;;;;;;;11.00;5.35;;;7.90;77.20;;;;;;5279545;27;20077;-92
2024/04/22 08:18:58;;;;;;;9.13;5.45;;;8.10;73.10;;;;;;5258946;27;20010;-92
2024/04/22 08:21:27;;;;;;;7.30;5.65;;;8.30;70.50;;;;;;5280191;27;20003;-93
2024/04/22 08:23:55;;;;;;;7.05;5.30;;;8.30;71.00;;;;;;5294150;27;20009;-92
2024/04/22 08:26:21;;;;;;;8.23;5.30;;;8.60;72.20;;;;;;5285825;27;20001;-93
2024/04/22 08:28:52;;;;;;;8.70;5.57;;;8.70;72.70;;;;;;5285894;27;20009;-93
2024/04/22 08:31:25;;;;;;;6.45;5.25;;;8.90;69.80;;;;;;5252512;27;20338;-92
2024/04/22 08:33:55;;;;;;;7.35;5.18;;;8.90;67.50;;;;;;5277702;27;19998;-92
2024/04/22 08:36:27;;;;;;;7.63;5.40;;;9.10;69.20;;;;;;5294703;27;20008;-92
2024/04/22 08:38:54;;;;;;;8.20;5.38;;;9.30;70.60;;;;;;5279793;27;20073;-93
2024/04/22 08:41:21;;;;;;;6.97;5.28;;;9.50;68.10;;;;;;5270861;27;20002;-92
2024/04/22 08:43:49;;;;;;;6.93;4.80;;;9.70;71.40;;;;;;5251823;27;20010;-94
2024/04/22 08:46:21;;;;;;;6.85;4.78;;;9.90;69.60;;;;;;5251938;27;20010;-93
2024/04/22 08:48:48;;;;;;;5.63;4.53;;;10.00;65.00;;;;;;5252044;27;19998;-92
2024/04/22 08:51:17;;;;;;;6.68;5.00;;;10.10;59.30;;;;;;5251746;27;20006;-93
2024/04/22 08:53:44;;;;;;;8.48;5.15;;;10.30;64.00;;;;;;5251940;27;20009;-93
2024/04/22 08:56:14;;;;;;;9.45;5.05;;;10.40;60.10;;;;;;5270520;27;20014;-92
2024/04/22 08:58:41;;;;;;;8.13;5.25;;;10.60;60.70;;;;;;5277048;27;20002;-91
2024/04/22 09:01:10;;;;;;;8.63;5.05;;;10.70;59.20;;;;;;5275506;27;20031;-91
2024/04/22 09:03:37;;;;;;;7.18;5.18;;;10.80;56.50;;;;;;5301172;27;20013;-91
2024/04/22 09:06:11;;;;;;;8.52;5.00;;;10.80;56.30;;;;;;5269291;27;20013;-92
2024/04/22 09:08:47;;;;;;;8.25;4.68;;;10.90;55.70;;;;;;5251715;27;20021;-92
2024/04/22 09:11:20;;;;;;;7.68;5.45;;;10.90;54.60;;;;;;5251579;27;20006;-94
2024/04/22 09:14:07;;;;;;;7.43;5.05;;;11.00;55.00;;;;;;5271128;27;19998;-91
2024/04/22 09:16:39;;;;;;;8.80;4.75;;;11.10;55.50;;;;;;5289179;27;20052;-92
2024/04/22 09:19:07;;;;;;;11.63;5.20;;;11.30;56.10;;;;;;5264955;27;20018;-93
2024/04/22 09:21:37;;;;;;;7.70;4.18;;;11.50;53.80;;;;;;5254988;27;20006;-93
2024/04/22 09:24:09;;;;;;;6.22;4.70;;;11.80;57.30;;;;;;5284900;27;20001;-93
2024/04/22 09:26:38;;;;;;;5.25;4.32;;;12.00;53.90;;;;;;5289497;27;20004;-92
2024/04/22 09:29:07;;;;;;;7.20;4.78;;;12.10;48.80;;;;;;5285390;27;19994;-92
2024/04/22 09:31:43;;;;;;;5.47;4.30;;;12.00;52.10;;;;;;5275261;27;20006;-92
2024/04/22 09:34:11;;;;;;;6.82;3.67;;;12.20;55.10;;;;;;5251429;27;20068;-91
2024/04/22 09:36:40;;;;;;;9.57;4.80;;;12.40;55.20;;;;;;5251372;27;20424;-93
2024/04/22 09:39:11;;;;;;;5.25;4.32;;;;;;;;;;5257609;27;20002;-92
2024/04/22 09:41:41;;;;;;;7.43;4.43;;;12.80;54.90;;;;;;5273726;27;20053;-92
2024/04/22 09:44:10;;;;;;;6.78;4.30;;;13.00;54.90;;;;;;5285651;27;20029;-93
2024/04/22 09:46:44;;;;;;;5.88;4.25;;;13.20;55.10;;;;;;5285715;27;20433;-92
2024/04/22 09:49:16;;;;;;;6.38;4.50;;;13.40;53.30;;;;;;5278884;27;20002;-92
2024/04/22 09:51:46;;;;;;;7.50;4.63;;;13.50;51.30;;;;;;5290072;27;19998;-92
2024/04/22 09:54:13;;;;;;;5.78;4.22;;;13.60;51.40;;;;;;5278659;27;20006;-92
2024/04/22 09:56:40;;;;;;;6.10;4.22;;;13.60;52.30;;;;;;5278771;27;20385;-92
2024/04/22 09:59:08;;;;;;;8.80;3.95;;;13.70;52.00;;;;;;5279817;27;20468;-91
2024/04/22 10:01:40;;;;;;;6.45;4.00;;;13.80;54.00;;;;;;5277140;27;20021;-92
2024/04/22 10:04:10;;;;;;;6.50;3.92;;;14.00;50.70;;;;;;5272938;27;20002;-92
2024/04/22 10:06:37;;;;;;;8.35;4.00;;;14.20;50.80;;;;;;5301448;27;20005;-93
2024/04/22 10:09:05;;;;;;;5.07;3.80;;;14.40;49.20;;;;;;5287531;27;19998;-93
2024/04/22 10:11:34;;;;;;;9.10;3.80;;;14.60;51.00;;;;;;5274959;27;20467;-94
2024/04/22 10:14:19;;;;;;;5.72;3.45;;;14.80;50.50;;;;;;5298745;27;20006;-94
2024/04/22 10:16:56;;;;;;;5.55;3.80;;;15.00;50.60;;;;;;5282005;27;20030;-94
2024/04/22 10:19:26;;;;;;;5.38;3.97;;;15.20;48.20;;;;;;5281612;27;19998;-93
2024/04/22 10:22:02;;;;;;;5.25;3.70;;;15.40;47.90;;;;;;5240641;27;20025;-94
2024/04/22 10:24:40;;;;;;;6.50;3.97;;;15.50;48.40;;;;;;5292894;27;20006;-94
2024/04/22 10:27:09;;;;;;;4.85;3.47;;;15.60;44.50;;;;;;5290031;27;20391;-95
2024/04/22 10:29:41;;;;;;;6.80;3.45;;;15.50;45.00;;;;;;5285091;27;20002;-95
2024/04/22 10:32:08;;;;;;;7.35;4.22;;;15.50;44.60;;;;;;5284768;27;20010;-94
2024/04/22 10:34:43;;;;;;;4.25;3.08;;;15.40;43.00;;;;;;5257521;27;20010;-94
2024/04/22 10:37:12;;;;;;;5.13;3.35;;;15.40;44.80;;;;;;5257558;27;19994;-95
2024/04/22 10:39:44;;;;;;;4.32;3.45;;;15.30;41.90;;;;;;5281591;27;20083;-95
2024/04/22 10:42:12;;;;;;;5.18;3.53;;;15.50;44.00;;;;;;5285681;27;20002;-94
2024/04/22 10:44:41;;;;;;;5.72;3.85;;;15.80;46.80;;;;;;5273001;27;20013;-93
2024/04/22 10:47:09;;;;;;;5.30;3.63;;;16.10;45.60;;;;;;5285340;27;19998;-94
2024/04/22 10:49:36;;;;;;;5.97;3.22;;;16.20;44.10;;;;;;5285841;27;20010;-93
2024/04/22 10:52:06;;;;;;;6.00;3.30;;;16.40;44.60;;;;;;5304305;27;20002;-93
2024/04/22 10:54:33;;;;;;;4.32;3.22;;;16.50;45.90;;;;;;5284460;27;20010;-94
2024/04/22 10:57:00;;;;;;;4.40;3.10;;;16.80;44.20;;;;;;5284579;27;20002;-94
2024/04/22 10:59:28;;;;;;;4.50;3.00;;;17.20;43.00;;;;;;5276927;27;20013;-92
2024/04/22 11:01:56;;;;;;;4.57;3.08;;;17.50;40.50;;;;;;5289875;27;20013;-93
2024/04/22 11:04:24;;;;;;;5.00;3.15;;;17.50;41.90;;;;;;5290573;27;19994;-93
2024/04/22 11:06:51;;;;;;;5.47;3.28;;;17.70;40.60;;;;;;5290372;27;19998;-95
2024/04/22 11:09:19;;;;;;;3.50;3.05;;;17.80;41.60;;;;;;5290635;27;20064;-94
2024/04/22 11:11:46;;;;;;;3.83;2.72;;;18.10;43.00;;;;;;5263458;27;20003;-95
2024/04/22 11:14:14;;;;;;;3.85;2.97;;;18.40;42.70;;;;;;5258015;27;20566;-95
2024/04/22 11:16:43;;;;;;;6.80;3.10;;;18.50;38.90;;;;;;5284483;27;20030;-95
2024/04/22 11:19:11;;;;;;;3.88;3.22;;;18.50;40.60;;;;;;5272637;27;20002;-95
2024/04/22 11:21:39;;;;;;;4.00;2.95;;;18.60;39.10;;;;;;5284756;27;20009;-94
2024/04/22 11:24:07;;;;;;;6.32;3.30;;;18.60;44.20;;;;;;5257202;27;20099;-93
2024/04/22 11:26:36;;;;;;;3.45;2.85;;;18.60;44.50;;;;;;5265111;27;20076;-95
2024/04/22 11:29:04;;;;;;;3.85;2.90;;;18.60;44.10;;;;;;5287322;27;20012;-95
2024/04/22 11:31:37;;;;;;;5.80;3.05;;;18.80;44.00;;;;;;5301368;27;20318;-95
2024/04/22 11:34:07;;;;;;;5.13;3.17;;;18.80;43.00;;;;;;5269087;27;20009;-92
2024/04/22 11:36:35;;;;;;;4.53;3.20;;;19.00;42.80;;;;;;5281206;27;20009;-95
2024/04/22 11:39:12;;;;;;;5.25;2.90;;;18.90;41.30;;;;;;5277676;27;20014;-92
2024/04/22 11:41:40;;;;;;;4.72;2.88;;;18.80;40.50;;;;;;5271945;27;20010;-94
2024/04/22 11:44:07;;;;;;;3.33;2.58;;;18.50;40.80;;;;;;5280575;27;20002;-93
2024/04/22 11:46:34;;;;;;;3.50;2.70;;;18.60;44.20;;;;;;5253212;27;20006;-95
2024/04/22 11:49:01;;;;;;;4.28;2.88;;;18.60;37.00;;;;;;5265728;27;20038;-95
2024/04/22 11:51:29;;;;;;;3.47;2.75;;;18.10;32.70;;;;;;5280586;27;20104;-95
2024/04/22 11:53:56;;;;;;;3.03;2.50;;;17.40;33.10;;;;;;5280496;27;20523;-94
2024/04/22 11:56:30;;;;;;;3.58;2.85;;;17.30;35.10;;;;;;5286371;27;20012;-94
2024/04/22 11:58:57;;;;;;;;;;;17.20;37.20;;;;;;5270858;27;20441;-94
2024/04/22 12:01:24;;;;;;;3.58;2.33;;;17.20;37.20;;;;;;5282148;27;19939;-94
2024/04/22 12:03:52;;;;;;;6.18;2.53;;;17.20;38.20;;;;;;5280323;27;20017;-94
2024/04/22 12:06:19;;;;;;;3.65;2.70;;;17.20;36.30;;;;;;5281206;27;20456;-92
2024/04/22 12:08:46;;;;;;;6.47;2.40;;;17.20;36.50;;;;;;5285965;27;20010;-94
2024/04/22 12:11:13;;;;;;;3.50;2.67;;;17.20;38.20;;;;;;5286043;27;19997;-95
2024/04/22 12:13:41;;;;;;;3.25;2.72;;;17.10;36.50;;;;;;5280167;27;20508;-94
2024/04/22 12:16:08;;;;;;;4.20;2.40;;;17.10;37.80;;;;;;5280111;27;20010;-94
2024/04/22 12:18:35;;;;;;;3.55;2.38;;;17.10;37.70;;;;;;5286518;27;20403;-95
2024/04/22 12:21:05;;;;;;;4.22;2.53;;;17.30;39.30;;;;;;5279921;27;20076;-94
2024/04/22 12:23:35;;;;;;;3.78;2.35;;;17.50;38.20;;;;;;5252553;27;20022;-94
2024/04/22 12:26:06;;;;;;;4.00;2.30;;;17.70;38.60;;;;;;5258502;27;20013;-94
2024/04/22 12:28:33;;;;;;;4.78;2.30;;;17.80;37.70;;;;;;5284537;27;20073;-94
2024/04/22 12:31:00;;;;;;;4.13;2.30;;;18.00;38.10;;;;;;5300508;27;20012;-94
2024/04/22 12:33:27;;;;;;;3.35;2.60;;;18.10;37.90;;;;;;5286124;27;19993;-95
2024/04/22 12:35:54;;;;;;;3.47;2.67;;;18.20;37.10;;;;;;5286298;27;20017;-95
2024/04/22 12:38:21;;;;;;;3.30;2.50;;;18.40;37.50;;;;;;5280040;27;19998;-95
2024/04/22 12:40:48;;;;;;;3.42;2.00;;;18.60;35.90;;;;;;5297847;27;20014;-95
2024/04/22 12:43:15;;;;;;;3.92;2.72;;;18.60;34.90;;;;;;5285654;27;20468;-95
2024/04/22 12:45:42;;;;;;;3.08;2.28;;;18.60;34.80;;;;;;5280273;27;20341;-95
2024/04/22 12:50:58;;;;;;;3.08;2.38;;;18.90;34.70;;;;;;5314436;27;20009;-94
2024/04/22 12:53:27;;;;;;;4.82;2.97;;;19.00;34.60;;;;;;5282449;27;20006;-94
2024/04/22 12:55:54;;;;;;;5.13;3.17;;;19.00;35.10;;;;;;5285338;27;20064;-95
2024/04/22 12:58:24;;;;;;;4.45;2.38;;;18.90;35.90;;;;;;5271123;27;20002;-95
2024/04/22 13:00:51;;;;;;;3.17;2.35;;;18.80;35.20;;;;;;5299050;27;19999;-95
2024/04/22 13:03:18;;;;;;;3.85;2.33;;;18.60;33.60;;;;;;5292894;27;20075;-94
2024/04/22 13:05:45;;;;;;;4.00;3.08;;;18.60;35.20;;;;;;5284766;27;20017;-95
2024/04/22 13:08:12;;;;;;;4.25;2.72;;;18.40;35.60;;;;;;5279652;27;20013;-93
2024/04/22 13:10:39;;;;;;;7.65;2.25;;;18.30;35.40;;;;;;5275337;27;20437;-92
2024/04/22 13:13:06;;;;;;;3.13;2.33;;;18.10;34.10;;;;;;5296114;27;20016;-93
2024/04/22 13:15:33;;;;;;;4.72;2.50;;;17.70;33.30;;;;;;5285335;27;20002;-92
2024/04/22 13:18:00;;;;;;;3.30;2.30;;;17.30;34.20;;;;;;5269164;27;20022;-93
2024/04/22 13:20:28;;;;;;;4.38;2.63;;;17.00;34.60;;;;;;5282764;27;20010;-92
2024/04/22 13:22:55;;;;;;;6.55;2.30;;;17.00;35.30;;;;;;5304996;27;20076;-93
2024/04/22 13:25:23;;;;;;;5.20;2.70;;;16.90;35.80;;;;;;5279302;27;20458;-92
2024/04/22 13:27:51;;;;;;;4.03;2.90;;;16.60;36.00;;;;;;5304517;27;20016;-92
2024/04/22 13:30:18;;;;;;;5.07;2.88;;;16.50;37.10;;;;;;5251163;27;20022;-92
2024/04/22 13:32:50;;;;;;;5.35;3.17;;;16.50;36.80;;;;;;5281722;27;20002;-93
2024/04/22 13:35:18;;;;;;;3.10;2.38;;;16.50;36.80;;;;;;5278921;27;20368;-91
2024/04/22 13:37:45;;;;;;;4.22;2.75;;;16.60;36.90;;;;;;5251172;27;20010;-92
2024/04/22 13:40:12;;;;;;;6.97;2.70;;;16.60;37.00;;;;;;5251563;27;19998;-93
2024/04/22 13:42:40;;;;;;;4.53;3.00;;;16.80;37.90;;;;;;5273157;27;20025;-92
2024/04/22 13:45:17;;;;;;;3.63;2.83;;;17.00;38.70;;;;;;5279346;27;20396;-92
2024/04/22 13:47:44;;;;;;;3.88;2.70;;;17.10;36.90;;;;;;5294102;27;20256;-93
2024/04/22 13:50:12;;;;;;;3.75;2.85;;;17.10;35.10;;;;;;5282791;27;20030;-92
2024/04/22 13:52:40;;;;;;;3.63;2.72;;;17.00;35.60;;;;;;5263467;27;20009;-93
2024/04/22 13:55:10;;;;;;;3.28;2.67;;;16.90;35.20;;;;;;5251764;27;20002;-93
2024/04/22 13:57:38;;;;;;;3.78;2.75;;;16.70;36.50;;;;;;5252667;27;20395;-92
2024/04/22 14:00:06;;;;;;;3.78;2.90;;;16.90;36.70;;;;;;5260479;27;20345;-93
2024/04/22 14:02:39;;;;;;;3.25;2.60;;;17.00;34.90;;;;;;5252113;27;20038;-94
2024/04/22 14:05:06;;;;;;;3.85;2.47;;;17.10;35.90;;;;;;5268477;27;20003;-92
2024/04/22 14:07:34;;;;;;;3.67;2.67;;;17.30;37.00;;;;;;5283950;27;20084;-93
2024/04/22 14:10:04;;;;;;;2.63;2.30;;;17.40;35.40;;;;;;5281671;27;20013;-92
2024/04/22 14:12:36;;;;;;;5.38;2.35;;;17.50;34.80;;;;;;5278950;27;20011;-92
2024/04/22 14:15:04;;;;;;;3.83;2.28;;;17.60;34.20;;;;;;5278444;27;20361;-93
2024/04/22 14:17:31;;;;;;;3.45;2.63;;;17.60;35.00;;;;;;5278611;27;20392;-93
2024/04/22 14:19:58;;;;;;;3.50;2.33;;;17.70;35.00;;;;;;5304481;27;20029;-91
2024/04/22 14:22:25;;;;;;;3.15;2.50;;;17.70;34.20;;;;;;5278549;27;20021;-93
2024/04/22 14:24:52;;;;;;;3.13;2.80;;;17.50;33.50;;;;;;5275293;27;20026;-93
2024/04/22 14:27:19;;;;;;;3.30;2.60;;;17.30;34.90;;;;;;5279101;27;20018;-93
2024/04/22 14:29:46;;;;;;;4.22;2.88;;;17.20;34.80;;;;;;5278501;27;20025;-93
2024/04/22 14:32:13;;;;;;;3.63;2.80;;;17.10;35.10;;;;;;5278276;27;19999;-93
2024/04/22 14:34:40;;;;;;;3.95;2.83;;;16.80;32.60;;;;;;5278269;27;20076;-93
2024/04/22 14:37:07;;;;;;;4.75;3.13;;;16.60;33.80;;;;;;5292787;27;20013;-93
2024/04/22 14:39:34;;;;;;;3.97;2.63;;;16.30;34.30;;;;;;5278051;27;20005;-93
2024/04/22 14:42:02;;;;;;;4.43;2.80;;;16.30;33.80;;;;;;5263114;27;20014;-93
2024/04/22 14:44:29;;;;;;;2.72;2.40;;;16.20;35.10;;;;;;5278049;27;19995;-93
2024/04/22 14:46:56;;;;;;;5.30;3.10;;;16.10;34.40;;;;;;5250458;27;20010;-92
2024/04/22 14:49:23;;;;;;;4.15;2.92;;;16.00;34.60;;;;;;5262871;27;20470;-93
2024/04/22 14:51:50;;;;;;;4.30;2.70;;;15.90;34.60;;;;;;5277612;27;19999;-93
2024/04/22 14:54:17;;;;;;;5.57;3.00;;;15.80;35.10;;;;;;5284147;27;20002;-93
2024/04/22 14:56:44;;;;;;;4.85;3.33;;;15.60;35.10;;;;;;5283842;27;20383;-93
2024/04/22 14:59:12;;;;;;;4.32;3.10;;;15.30;35.40;;;;;;5262165;27;20002;-93
2024/04/22 15:01:39;;;;;;;4.95;2.78;;;15.00;36.30;;;;;;5273225;27;20332;-92
2024/04/22 15:04:06;;;;;;;4.18;3.20;;;14.90;37.40;;;;;;5282702;27;20075;-93
2024/04/22 15:06:33;;;;;;;4.53;3.45;;;14.80;38.70;;;;;;5277819;27;19995;-92
2024/04/22 15:09:03;;;;;;;4.57;3.35;;;14.70;38.60;;;;;;5284361;27;20002;-92
2024/04/22 15:11:32;;;;;;;3.95;3.45;;;14.70;38.80;;;;;;5298990;27;20010;-92
2024/04/22 15:13:59;;;;;;;3.97;3.00;;;14.60;37.60;;;;;;5279786;27;20012;-92
2024/04/22 15:16:27;;;;;;;6.03;3.25;;;14.50;37.80;;;;;;5284505;27;20016;-92
2024/04/22 15:18:57;;;;;;;4.43;3.40;;;14.40;37.40;;;;;;5284942;27;19998;-92
2024/04/22 15:21:24;;;;;;;6.13;3.90;;;14.40;38.30;;;;;;5296200;27;20360;-91
2024/04/22 15:23:51;;;;;;;4.22;3.42;;;14.30;37.80;;;;;;5281020;27;20012;-91
2024/04/22 15:26:18;;;;;;;6.18;3.70;;;14.20;38.40;;;;;;5280778;27;20460;-92
2024/04/22 15:28:49;;;;;;;6.03;3.90;;;14.10;38.50;;;;;;5265554;27;20072;-91
2024/04/22 15:31:19;;;;;;;5.40;3.75;;;14.00;38.60;;;;;;5280801;27;20328;-91
2024/04/22 15:34:42;;;;;;;5.07;3.70;;;13.80;38.60;;;;;;5302123;27;20010;-91
2024/04/22 15:37:10;;;;;;;7.25;3.60;;;13.70;40.10;;;;;;5286622;27;20091;-92
2024/04/22 15:39:37;;;;;;;4.82;3.40;;;13.60;39.80;;;;;;5284610;27;20487;-91
2024/04/22 15:42:04;;;;;;;5.13;3.58;;;13.60;39.60;;;;;;5286082;27;20009;-92
2024/04/22 15:44:31;;;;;;;4.90;3.15;;;13.50;39.70;;;;;;5286578;27;20092;-96
2024/04/22 15:47:00;;;;;;;4.18;3.35;;;13.50;39.20;;;;;;5281663;27;20009;-95
2024/04/22 15:49:28;;;;;;;6.43;3.22;;;13.40;39.90;;;;;;5296777;27;20009;-95
2024/04/22 15:51:57;;;;;;;6.30;4.38;;;13.40;40.00;;;;;;5301106;27;20014;-95
2024/04/22 15:54:29;;;;;;;5.78;3.85;;;13.30;39.90;;;;;;5287393;27;20010;-95
2024/04/22 15:56:58;;;;;;;5.25;3.67;;;13.20;39.90;;;;;;5279142;27;20014;-96
2024/04/22 15:59:25;;;;;;;4.88;3.63;;;13.00;40.60;;;;;;5272702;27;20073;-93
2024/04/22 16:01:52;;;;;;;4.47;3.53;;;12.90;39.70;;;;;;5280882;27;20002;-94
2024/04/22 16:04:22;;;;;;;5.13;4.10;;;12.80;39.80;;;;;;5280219;27;20069;-93
2024/04/22 16:06:49;;;;;;;4.97;3.70;;;12.70;40.60;;;;;;5266616;27;20004;-93
2024/04/22 16:09:16;;;;;;;3.95;3.42;;;12.50;39.40;;;;;;5286313;27;20004;-93
2024/04/22 16:11:43;;;;;;;5.90;3.85;;;12.40;40.20;;;;;;5285870;27;20083;-94
2024/04/22 16:14:10;;;;;;;6.22;3.42;;;12.30;40.50;;;;;;5286194;27;20008;-94
2024/04/22 16:16:37;;;;;;;5.70;4.07;;;12.00;40.40;;;;;;5286126;27;20072;-93
2024/04/22 16:19:04;;;;;;;5.00;3.67;;;12.00;42.30;;;;;;5282251;27;20013;-94
2024/04/22 16:21:34;;;;;;;5.05;3.50;;;11.90;42.10;;;;;;5286891;27;20006;-94
2024/04/22 16:24:04;;;;;;;5.28;3.75;;;11.80;41.40;;;;;;5286099;27;19993;-93
2024/04/22 16:26:31;;;;;;;5.00;3.65;;;11.80;43.50;;;;;;5280376;27;20021;-94
2024/04/22 16:28:59;;;;;;;6.53;4.15;;;11.70;43.30;;;;;;5283033;27;20072;-94
2024/04/22 16:31:26;;;;;;;6.25;4.28;;;11.50;42.20;;;;;;5284705;27;19997;-94
2024/04/22 16:33:56;;;;;;;5.35;3.70;;;11.40;42.70;;;;;;5308983;27;20012;-94
2024/04/22 16:36:24;;;;;;;5.80;3.72;;;11.40;43.40;;;;;;5275083;27;20026;-94
2024/04/22 16:38:51;;;;;;;4.97;3.60;;;11.20;42.90;;;;;;5285323;27;20017;-94
2024/04/22 16:41:19;;;;;;;5.95;3.28;;;11.10;42.30;;;;;;5279297;27;20022;-95
2024/04/22 16:43:48;;;;;;;5.22;3.75;;;11.00;43.00;;;;;;5280176;27;20047;-95
2024/04/22 16:46:15;;;;;;;4.10;3.20;;;11.00;42.90;;;;;;5280345;27;20004;-95
2024/04/22 16:48:45;;;;;;;6.07;4.05;;;11.00;43.50;;;;;;5294382;27;20002;-96
2024/04/22 16:51:15;;;;;;;5.05;4.10;;;10.80;43.40;;;;;;5286010;27;20075;-94
2024/04/22 16:53:42;;;;;;;6.53;4.03;;;10.70;43.30;;;;;;5281938;27;20010;-93
2024/04/22 16:56:09;;;;;;;7.55;3.55;;;10.60;44.30;;;;;;5277865;27;20054;-93
2024/04/22 16:58:36;;;;;;;5.03;3.47;;;10.60;45.00;;;;;;5279788;27;20072;-94
2024/04/22 17:01:03;;;;;;;5.38;4.10;;;10.50;45.30;;;;;;5285061;27;20095;-94
2024/04/22 17:03:30;;;;;;;5.35;3.75;;;10.40;45.20;;;;;;5283642;27;20016;-94
2024/04/22 17:05:59;;;;;;;5.72;3.55;;;10.20;45.90;;;;;;5285246;27;20025;-93
2024/04/22 17:08:26;;;;;;;5.35;3.90;;;10.20;46.50;;;;;;5282001;27;20002;-95
2024/04/22 17:10:53;;;;;;;7.38;4.60;;;10.10;46.70;;;;;;5286276;27;19997;-94
2024/04/22 17:13:20;;;;;;;6.25;4.72;;;10.00;47.10;;;;;;5280458;27;20007;-92
2024/04/22 17:15:47;;;;;;;5.90;4.65;;;9.90;47.50;;;;;;5275571;27;20006;-92
2024/04/22 17:18:17;;;;;;;5.72;4.68;;;9.90;48.40;;;;;;5265471;27;19998;-92
2024/04/22 17:20:57;;;;;;;5.70;4.65;;;9.80;48.90;;;;;;5279435;27;20015;-92
2024/04/22 17:23:27;;;;;;;7.32;4.95;;;9.70;48.60;;;;;;5310636;27;20005;-93
2024/04/22 17:25:54;;;;;;;6.47;4.75;;;9.70;49.30;;;;;;5251426;27;20388;-92
2024/04/22 17:28:22;;;;;;;7.63;5.35;;;;;;;;;;5256380;27;20009;-92
2024/04/22 17:30:50;;;;;;;7.07;4.78;;;9.60;48.70;;;;;;5271492;27;20445;-91
2024/04/22 17:33:17;;;;;;;7.32;4.72;;;9.60;49.70;;;;;;5278945;27;20008;-92
2024/04/22 17:35:47;;;;;;;9.15;4.97;;;9.50;49.80;;;;;;5309998;27;20009;-92
2024/04/22 17:38:14;;;;;;;7.53;5.43;;;9.50;49.90;;;;;;5278950;27;20038;-92
2024/04/22 17:40:51;;;;;;;8.27;5.40;;;9.50;50.20;;;;;;5279144;27;20069;-92
2024/04/22 17:43:19;;;;;;;6.53;5.38;;;9.40;51.10;;;;;;5307140;27;20058;-92
2024/04/22 17:45:56;;;;;;;6.63;5.38;;;9.40;50.70;;;;;;5296187;27;20020;-92
2024/04/22 17:48:25;;;;;;;9.43;5.60;;;9.40;51.40;;;;;;5284844;27;20045;-92
2024/04/22 17:50:52;;;;;;;8.07;5.53;;;9.40;50.80;;;;;;5284512;27;20472;-91
2024/04/22 17:53:19;;;;;;;6.85;5.25;;;9.30;51.00;;;;;;5278630;27;20020;-92
2024/04/22 17:55:49;;;;;;;7.55;5.63;;;9.30;51.20;;;;;;5299073;27;20010;-92
2024/04/22 17:58:17;;;;;;;7.30;5.55;;;9.20;51.70;;;;;;5291946;27;20010;-92
2024/04/22 18:00:46;;;;;;;8.07;5.30;;;9.10;51.50;;;;;;5279068;27;20017;-92
2024/04/22 18:03:17;;;;;;;7.10;5.75;;;9.10;52.10;;;;;;5265532;27;19998;-92
2024/04/22 18:05:44;;;;;;;7.65;4.78;;;9.00;51.50;;;;;;5261429;27;20523;-92
2024/04/22 18:08:12;;;;;;;9.90;5.57;;;9.00;52.20;;;;;;5282953;27;20013;-93
2024/04/22 18:10:46;;;;;;;5.95;4.90;;;9.00;52.40;;;;;;5308761;27;20542;-93
2024/04/22 18:13:13;;;;;;;7.82;5.80;;;9.00;53.40;;;;;;5292898;27;20025;-92
2024/04/22 18:15:42;;;;;;;7.95;5.50;;;9.00;53.10;;;;;;5302944;27;20013;-93
2024/04/22 18:18:10;;;;;;;8.00;5.22;;;8.90;52.90;;;;;;5314679;27;20014;-92
2024/04/22 18:20:37;;;;;;;6.85;5.70;;;9.00;52.80;;;;;;5272725;27;20003;-90
2024/04/22 18:23:04;;;;;;;7.82;5.28;;;8.90;53.40;;;;;;5255945;27;20009;-93
2024/04/22 18:25:31;;;;;;;7.32;6.13;;;8.90;52.80;;;;;;5284755;27;20337;-92
2024/04/22 18:28:07;;;;;;;9.63;6.63;;;8.80;53.20;;;;;;5290172;27;20009;-94
2024/04/22 18:30:35;;;;;;;8.43;6.63;;;8.80;53.80;;;;;;5285649;27;20245;-94
2024/04/22 18:33:08;;;;;;;8.73;5.73;;;8.80;54.00;;;;;;5288141;27;20009;-93